createdAt,value
2019-02-26T00:01:21.091Z,58.55
2019-02-26T00:03:55.071Z,59.04
2019-02-26T00:06:27.871Z,59.09
2019-02-26T00:08:59.547Z,59.38
2019-02-26T00:11:30.881Z,59.63
2019-02-26T00:14:02.153Z,59.74
2019-02-26T00:16:35.250Z,59.58
2019-02-26T00:19:05.535Z,59.63
2019-02-26T00:21:36.886Z,59.34
2019-02-26T00:24:10.011Z,59.46
2019-02-26T00:26:40.854Z,59.37
2019-02-26T00:29:11.916Z,59.41
2019-02-26T00:31:43.400Z,59.08
2019-02-26T00:34:16.745Z,58.88
2019-02-26T00:36:46.688Z,58.31
2019-02-26T00:39:17.178Z,58.64
2019-02-26T00:41:51.288Z,58.61
2019-02-26T00:44:21.188Z,58.96
2019-02-26T00:46:53.595Z,58.83
2019-02-26T00:49:25.835Z,58.77
2019-02-26T00:51:56.984Z,58.77
2019-02-26T00:54:31.985Z,59.00
2019-02-26T00:57:03.473Z,59.31
2019-02-26T00:59:36.388Z,59.83
2019-02-26T01:02:05.908Z,60.33
2019-02-26T01:04:36.331Z,60.76
2019-02-26T01:07:07.568Z,61.14
2019-02-26T01:09:38.062Z,61.20
2019-02-26T01:12:09.574Z,60.67
2019-02-26T01:14:41.834Z,60.42
2019-02-26T01:17:14.854Z,59.67
2019-02-26T01:19:45.665Z,58.80
2019-02-26T01:22:16.146Z,59.17
2019-02-26T01:24:49.786Z,59.39
2019-02-26T01:27:20.948Z,57.97
2019-02-26T01:29:53.528Z,57.50
2019-02-26T01:32:24.928Z,57.19
2019-02-26T01:34:55.785Z,56.16
2019-02-26T01:37:29.890Z,55.47
2019-02-26T01:40:00.277Z,55.76
2019-02-26T01:42:31.658Z,54.24
2019-02-26T01:45:02.357Z,54.46
2019-02-26T01:47:33.013Z,55.49
2019-02-26T01:50:06.285Z,56.35
2019-02-26T01:52:36.618Z,56.67
2019-02-26T01:55:08.461Z,56.88
2019-02-26T01:57:42.498Z,58.51
2019-02-26T02:00:16.590Z,58.43
2019-02-26T02:02:47.214Z,58.74
2019-02-26T02:05:21.437Z,59.60
2019-02-26T02:07:53.584Z,59.57
2019-02-26T02:10:24.246Z,60.02
2019-02-26T02:12:59.552Z,60.65
2019-02-26T02:15:29.822Z,61.57
2019-02-26T02:18:01.780Z,61.37
2019-02-26T02:20:32.422Z,62.23
2019-02-26T02:23:04.663Z,62.28
2019-02-26T02:25:36.133Z,62.98
2019-02-26T02:28:07.137Z,63.64
2019-02-26T02:30:39.049Z,64.01
2019-02-26T02:33:09.890Z,64.34
2019-02-26T02:35:40.521Z,64.44
2019-02-26T02:38:11.146Z,64.25
2019-02-26T02:40:43.301Z,64.71
2019-02-26T02:43:16.144Z,65.34
2019-02-26T02:45:47.570Z,65.45
2019-02-26T02:48:18.292Z,65.46
2019-02-26T02:50:50.045Z,65.64
2019-02-26T02:53:23.261Z,65.54
2019-02-26T02:55:53.087Z,65.77
2019-02-26T02:58:25.979Z,65.81
2019-02-26T03:00:57.144Z,65.69
2019-02-26T03:03:28.193Z,65.17
2019-02-26T03:06:00.829Z,65.48
2019-02-26T03:08:31.014Z,65.12
2019-02-26T03:11:01.566Z,65.14
2019-02-26T03:13:33.375Z,63.21
2019-02-26T03:16:04.127Z,62.85
2019-02-26T03:18:34.673Z,62.49
2019-02-26T03:21:05.435Z,63.22
2019-02-26T03:23:37.975Z,62.83
2019-02-26T03:26:12.582Z,61.28
2019-02-26T03:28:42.100Z,61.07
2019-02-26T03:31:13.038Z,61.06
2019-02-26T03:33:43.565Z,61.67
2019-02-26T03:36:16.570Z,62.29
2019-02-26T03:38:48.409Z,62.48
2019-02-26T03:41:22.218Z,62.87
2019-02-26T03:43:50.867Z,62.95
2019-02-26T03:46:21.562Z,63.16
2019-02-26T03:48:52.335Z,63.76
2019-02-26T03:51:23.043Z,63.68
2019-02-26T03:53:53.572Z,64.14
2019-02-26T03:56:24.727Z,64.54
2019-02-26T03:58:57.780Z,65.30
2019-02-26T04:01:28.101Z,64.70
2019-02-26T04:03:59.750Z,64.30
2019-02-26T04:06:33.280Z,64.35
2019-02-26T04:09:03.407Z,64.76
2019-02-26T04:11:34.126Z,64.82
2019-02-26T04:14:04.784Z,65.61
2019-02-26T04:16:35.938Z,65.81
2019-02-26T04:19:08.946Z,65.86
2019-02-26T04:22:15.865Z,65.93
2019-02-26T04:24:47.495Z,66.13
2019-02-26T04:27:45.396Z,66.90
2019-02-26T04:30:57.732Z,66.64
2019-02-26T04:34:13.390Z,66.60
2019-02-26T04:36:59.051Z,66.97
2019-02-26T04:40:11.916Z,67.44
2019-02-26T04:43:25.469Z,67.40
2019-02-26T04:46:16.574Z,68.00
2019-02-26T04:48:47.342Z,67.86
2019-02-26T04:51:17.916Z,66.91
2019-02-26T04:53:50.940Z,66.70
2019-02-26T04:56:20.792Z,66.44
2019-02-26T04:58:51.357Z,66.52
2019-02-26T05:01:21.836Z,66.62
2019-02-26T05:03:53.459Z,66.71
2019-02-26T05:06:24.626Z,66.85
2019-02-26T05:08:56.875Z,66.90
2019-02-26T05:11:32.632Z,66.74
2019-02-26T05:14:00.671Z,66.55
2019-02-26T05:16:32.625Z,66.30
2019-02-26T05:19:03.538Z,66.60
2019-02-26T05:21:35.516Z,66.11
2019-02-26T05:26:35.628Z,65.50
2019-02-26T05:29:11.702Z,65.44
2019-02-26T05:31:43.177Z,65.25
2019-02-26T05:34:15.064Z,64.65
2019-02-26T05:36:46.416Z,63.88
2019-02-26T05:39:20.402Z,63.33
2019-02-26T05:41:52.273Z,63.03
2019-02-26T05:44:21.666Z,63.11
2019-02-26T05:46:54.003Z,62.81
2019-02-26T05:49:24.355Z,62.09
2019-02-26T05:51:56.857Z,61.71
2019-02-26T05:54:27.632Z,61.00
2019-02-26T05:56:57.866Z,60.61
2019-02-26T05:59:28.517Z,60.67
2019-02-26T06:02:00.941Z,60.63
2019-02-26T06:04:32.539Z,60.71
2019-02-26T06:07:04.756Z,59.27
2019-02-26T06:09:35.272Z,58.87
2019-02-26T06:12:06.046Z,59.05
2019-02-26T06:14:39.177Z,59.19
2019-02-26T06:17:10.665Z,59.55
2019-02-26T06:19:48.945Z,59.64
2019-02-26T06:22:21.398Z,59.76
2019-02-26T06:24:55.014Z,59.49
2019-02-26T06:27:25.217Z,59.79
2019-02-26T06:29:58.173Z,60.16
2019-02-26T06:32:31.985Z,59.81
2019-02-26T06:35:00.341Z,59.20
2019-02-26T06:37:33.071Z,58.52
2019-02-26T06:40:05.661Z,58.85
2019-02-26T06:42:38.021Z,59.27
2019-02-26T06:45:11.005Z,59.00
2019-02-26T06:47:41.793Z,59.64
2019-02-26T06:50:13.832Z,60.00
2019-02-26T06:52:47.563Z,59.18
2019-02-26T06:55:17.335Z,58.08
2019-02-26T06:57:50.801Z,56.46
2019-02-26T07:00:23.763Z,53.04
2019-02-26T07:02:53.316Z,50.54
2019-02-26T07:05:24.627Z,50.00
2019-02-26T07:07:56.988Z,48.22
2019-02-26T07:10:29.542Z,45.59
2019-02-26T07:13:02.049Z,43.38
2019-02-26T07:15:32.636Z,42.12
2019-02-26T07:18:06.766Z,39.78
2019-02-26T07:20:39.485Z,38.92
2019-02-26T07:23:08.813Z,38.47
2019-02-26T07:25:42.170Z,39.48
2019-02-26T07:28:12.256Z,40.14
2019-02-26T07:30:44.710Z,40.92
2019-02-26T07:33:15.327Z,39.58
2019-02-26T07:35:45.848Z,39.55
2019-02-26T07:38:18.173Z,40.51
2019-02-26T07:40:49.783Z,40.28
2019-02-26T07:43:22.520Z,42.47
2019-02-26T07:50:11.145Z,40.89
2019-02-26T07:52:41.303Z,40.66
2019-02-26T07:55:14.702Z,40.72
2019-02-26T07:57:48.937Z,40.35
2019-02-26T08:00:27.767Z,39.61
2019-02-26T08:03:00.169Z,39.71
2019-02-26T08:05:37.001Z,40.28
2019-02-26T08:08:09.821Z,39.98
2019-02-26T08:10:42.865Z,39.46
2019-02-26T08:13:14.344Z,38.90
2019-02-26T08:15:46.511Z,40.11
2019-02-26T08:18:17.172Z,41.35
2019-02-26T08:20:47.814Z,42.65
2019-02-26T08:24:12.017Z,42.33
2019-02-26T08:26:45.338Z,43.01
2019-02-26T08:29:16.258Z,42.44
2019-02-26T08:31:49.395Z,42.89
2019-02-26T08:34:19.670Z,43.09
2019-02-26T08:36:50.191Z,43.51
2019-02-26T08:39:20.779Z,41.33
2019-02-26T08:42:04.379Z,42.33
2019-02-26T08:44:34.903Z,42.32
2019-02-26T08:47:08.671Z,40.62
2019-02-26T08:49:40.112Z,39.50
2019-02-26T08:53:02.985Z,38.43
2019-02-26T08:58:07.598Z,36.82
2019-02-26T08:58:58.388Z,37.64
2019-02-26T09:01:28.801Z,38.43
2019-02-26T09:04:07.129Z,38.58
2019-02-26T09:06:37.883Z,38.39
2019-02-26T09:09:10.984Z,38.79
2019-02-26T09:11:44.839Z,37.01
2019-02-26T09:14:40.868Z,35.08
2019-02-26T09:17:13.922Z,32.94
2019-02-26T09:20:34.008Z,32.22
2019-02-26T09:23:04.513Z,31.42
2019-02-26T09:25:35.168Z,32.07
2019-02-26T09:28:05.603Z,31.25
2019-02-26T09:30:38.364Z,31.02
2019-02-26T09:33:10.937Z,28.71
2019-02-26T09:35:41.027Z,27.79
2019-02-26T09:38:12.370Z,29.51
2019-02-26T09:40:45.160Z,27.55
2019-02-26T09:43:19.460Z,27.47
2019-02-26T09:45:50.526Z,27.71
2019-02-26T09:48:21.985Z,26.99
2019-02-26T09:50:52.506Z,27.11
2019-02-26T09:53:54.795Z,27.79
2019-02-26T09:56:30.542Z,27.52
2019-02-26T10:00:10.054Z,27.55
2019-02-26T10:02:42.998Z,27.43
2019-02-26T10:05:15.979Z,28.19
2019-02-26T10:07:46.732Z,26.34
2019-02-26T10:10:18.662Z,25.09
2019-02-26T10:13:10.157Z,24.17
2019-02-26T10:16:15.710Z,24.47
2019-02-26T10:18:47.330Z,23.40
2019-02-26T10:21:20.564Z,22.76
2019-02-26T10:23:52.177Z,24.04
2019-02-26T10:26:26.291Z,22.36
2019-02-26T10:29:03.367Z,21.82
2019-02-26T10:31:45.317Z,21.91
2019-02-26T10:34:19.078Z,20.94
2019-02-26T10:36:54.033Z,21.01
2019-02-26T10:39:32.688Z,21.12
2019-02-26T10:42:02.989Z,21.16
2019-02-26T10:44:37.698Z,20.29
2019-02-26T10:47:10.563Z,20.29
2019-02-26T10:49:46.736Z,18.44
2019-02-26T10:52:31.983Z,18.00
2019-02-26T10:55:12.810Z,17.14
2019-02-26T10:57:43.538Z,16.52
2019-02-26T11:00:28.044Z,16.82
2019-02-26T11:02:57.536Z,16.57
2019-02-26T11:05:27.825Z,16.39
2019-02-26T11:08:01.446Z,15.70
2019-02-26T11:10:30.086Z,15.72
2019-02-26T11:13:00.607Z,15.28
2019-02-26T11:15:33.898Z,16.11
2019-02-26T11:18:03.410Z,16.11
2019-02-26T11:20:36.374Z,16.11
2019-02-26T11:23:09.012Z,18.47
2019-02-26T11:25:38.913Z,20.23
2019-02-26T11:28:10.639Z,21.09
2019-02-26T11:30:41.391Z,21.89
2019-02-26T11:33:13.680Z,22.61
2019-02-26T11:35:46.256Z,22.15
2019-02-26T11:38:17.124Z,21.40
2019-02-26T11:40:48.694Z,19.95
2019-02-26T11:43:22.968Z,18.61
2019-02-26T11:45:52.014Z,17.54
2019-02-26T11:48:23.475Z,17.09
2019-02-26T11:50:54.786Z,16.30
2019-02-26T11:53:25.296Z,16.85
2019-02-26T11:55:56.927Z,16.35
2019-02-26T11:58:28.353Z,18.22
2019-02-26T12:01:00.520Z,19.44
2019-02-26T12:03:33.448Z,18.27
2019-02-26T12:06:03.378Z,20.15
2019-02-26T12:08:33.856Z,21.54
2019-02-26T12:11:06.790Z,23.00
2019-02-26T12:13:36.225Z,24.17
2019-02-26T12:16:06.963Z,23.18
2019-02-26T12:18:39.119Z,21.48
2019-02-26T12:21:10.551Z,20.27
2019-02-26T12:23:44.130Z,18.95
2019-02-26T12:26:16.347Z,19.59
2019-02-26T12:28:46.413Z,19.35
2019-02-26T12:31:17.059Z,22.28
2019-02-26T12:33:47.424Z,22.87
2019-02-26T12:36:17.901Z,22.84
2019-02-26T12:38:50.346Z,22.10
2019-02-26T12:41:21.050Z,23.33
2019-02-26T12:43:51.670Z,24.06
2019-02-26T12:46:24.348Z,24.55
2019-02-26T12:48:54.889Z,25.59
2019-02-26T12:51:28.019Z,25.92
2019-02-26T12:53:57.499Z,28.05
2019-02-26T12:56:30.071Z,29.23
2019-02-26T12:59:00.281Z,29.33
2019-02-26T13:01:33.282Z,29.56
2019-02-26T13:04:03.062Z,30.00
2019-02-26T13:06:34.397Z,30.04
2019-02-26T13:09:07.367Z,30.80
2019-02-26T13:11:38.009Z,30.54
2019-02-26T13:14:08.519Z,29.93
2019-02-26T13:16:39.076Z,29.19
2019-02-26T13:19:09.747Z,28.07
2019-02-26T13:21:42.930Z,26.87
2019-02-26T13:24:17.170Z,26.98
2019-02-26T13:26:50.214Z,27.83
2019-02-26T13:29:17.273Z,28.25
2019-02-26T13:31:56.190Z,28.17
2019-02-26T13:34:19.542Z,28.62
2019-02-26T13:36:53.702Z,29.53
2019-02-26T13:39:26.146Z,29.51
2019-02-26T13:41:58.473Z,29.62
2019-02-26T13:44:26.355Z,30.40
2019-02-26T13:46:56.920Z,31.38
2019-02-26T13:49:27.897Z,31.32
2019-02-26T13:51:58.516Z,31.70
2019-02-26T13:54:28.903Z,32.10
2019-02-26T13:56:59.503Z,32.53
2019-02-26T13:59:30.157Z,31.28
2019-02-26T14:02:00.552Z,31.40
2019-02-26T14:04:31.088Z,30.46
2019-02-26T14:07:01.136Z,30.38
2019-02-26T14:09:31.735Z,30.78
2019-02-26T14:12:02.041Z,30.61
2019-02-26T14:14:32.779Z,29.31
2019-02-26T14:17:05.871Z,30.75
2019-02-26T14:19:36.637Z,30.23
2019-02-26T14:22:07.068Z,31.17
2019-02-26T14:24:37.783Z,30.76
2019-02-26T14:27:08.161Z,30.92
2019-02-26T14:29:38.481Z,31.91
2019-02-26T14:32:09.173Z,30.98
2019-02-26T14:34:39.911Z,31.29
2019-02-26T14:37:10.243Z,31.83
2019-02-26T14:39:40.640Z,32.41
2019-02-26T14:42:11.196Z,32.07
2019-02-26T14:44:41.695Z,31.91
2019-02-26T14:47:12.136Z,32.01
2019-02-26T14:49:42.615Z,32.00
2019-02-26T14:52:13.321Z,32.18
2019-02-26T14:54:43.765Z,32.53
2019-02-26T14:57:14.344Z,33.09
2019-02-26T14:59:46.909Z,32.57
2019-02-26T15:02:19.508Z,33.12
2019-02-26T15:04:49.708Z,33.68
2019-02-26T15:07:20.536Z,33.77
2019-02-26T15:09:51.187Z,34.13
2019-02-26T15:12:21.597Z,34.45
2019-02-26T15:14:52.349Z,34.23
2019-02-26T15:17:23.142Z,34.87
2019-02-26T15:19:53.829Z,35.54
2019-02-26T15:22:24.315Z,35.07
2019-02-26T15:24:54.820Z,35.72
2019-02-26T15:27:35.908Z,34.96
2019-02-26T15:29:59.700Z,35.48
2019-02-26T15:32:30.406Z,36.06
2019-02-26T15:35:00.681Z,36.25
2019-02-26T15:37:32.998Z,36.03
2019-02-26T15:40:03.813Z,35.44
2019-02-26T15:42:34.548Z,35.33
2019-02-26T15:45:05.184Z,35.37
2019-02-26T15:47:35.771Z,35.44
2019-02-26T15:50:08.989Z,35.25
2019-02-26T15:52:39.700Z,35.35
2019-02-26T15:55:12.401Z,35.66
2019-02-26T15:57:42.813Z,35.82
2019-02-26T16:00:16.302Z,36.15
2019-02-26T16:02:47.139Z,36.25
2019-02-26T16:05:17.870Z,36.96
2019-02-26T16:07:48.348Z,36.49
2019-02-26T16:10:19.470Z,36.74
2019-02-26T16:12:51.430Z,36.82
2019-02-26T16:15:23.099Z,37.50
2019-02-26T16:17:58.147Z,37.61
2019-02-26T16:20:26.043Z,37.56
2019-02-26T16:22:56.881Z,38.01
2019-02-26T16:25:28.696Z,37.10
2019-02-26T16:28:00.112Z,37.57
2019-02-26T16:30:32.759Z,37.39
2019-02-26T16:33:03.271Z,37.71
2019-02-26T16:35:33.775Z,37.69
2019-02-26T16:38:08.290Z,37.52
2019-02-26T16:40:39.078Z,37.77
2019-02-26T16:43:09.675Z,37.65
2019-02-26T16:45:40.284Z,37.23
2019-02-26T16:48:12.826Z,37.28
2019-02-26T16:50:45.507Z,37.51
2019-02-26T16:53:16.121Z,37.92
2019-02-26T16:55:48.551Z,38.10
2019-02-26T16:58:20.607Z,37.92
2019-02-26T17:00:51.319Z,38.39
2019-02-26T17:03:25.861Z,38.17
2019-02-26T17:05:56.806Z,38.93
2019-02-26T17:08:28.871Z,39.28
2019-02-26T17:10:59.318Z,39.13
2019-02-26T17:13:29.765Z,39.25
2019-02-26T17:16:01.409Z,39.72
2019-02-26T17:18:31.977Z,39.67
2019-02-26T17:21:02.442Z,39.95
2019-02-26T17:23:33.122Z,40.26
2019-02-26T17:26:04.140Z,40.40
2019-02-26T17:28:34.532Z,40.99
2019-02-26T17:31:05.250Z,40.86
2019-02-26T17:33:35.881Z,41.71
2019-02-26T17:36:06.866Z,41.88
2019-02-26T17:38:37.447Z,41.95
2019-02-26T17:41:09.949Z,40.95
2019-02-26T17:43:42.691Z,41.43
2019-02-26T17:46:13.242Z,41.66
2019-02-26T17:48:43.964Z,41.29
2019-02-26T17:51:18.784Z,40.62
2019-02-26T17:53:46.853Z,40.97
2019-02-26T17:56:17.963Z,40.04
2019-02-26T17:58:49.503Z,40.39
2019-02-26T18:01:23.584Z,39.55
2019-02-26T18:03:53.877Z,39.64
2019-02-26T18:06:24.264Z,39.21
2019-02-26T18:08:56.460Z,38.72
2019-02-26T18:11:27.001Z,38.45
2019-02-26T18:14:00.204Z,39.40
2019-02-26T18:16:31.714Z,38.68
2019-02-26T18:19:07.357Z,39.54
2019-02-26T18:21:38.421Z,39.52
2019-02-26T18:24:09.577Z,39.97
2019-02-26T18:26:40.103Z,39.80
2019-02-26T18:29:10.795Z,39.51
2019-02-26T18:31:42.544Z,39.87
2019-02-26T18:34:14.014Z,39.11
2019-02-26T18:36:45.438Z,38.83
2019-02-26T18:39:16.731Z,39.45
2019-02-26T18:41:50.682Z,39.37
2019-02-26T18:44:20.674Z,39.24
2019-02-26T18:46:51.582Z,39.23
2019-02-26T18:49:22.485Z,39.69
2019-02-26T18:51:53.282Z,40.32
2019-02-26T18:54:23.761Z,39.15
2019-02-26T18:56:54.350Z,39.24
2019-02-26T18:59:24.838Z,39.28
2019-02-26T19:01:55.468Z,40.06
2019-02-26T19:04:27.340Z,40.01
2019-02-26T19:06:59.622Z,39.99
2019-02-26T19:09:30.504Z,39.59
2019-02-26T19:12:01.060Z,39.60
2019-02-26T19:14:31.949Z,39.72
2019-02-26T19:17:02.506Z,39.86
2019-02-26T19:19:32.925Z,40.03
2019-02-26T19:22:03.261Z,40.50
2019-02-26T19:24:35.787Z,41.14
2019-02-26T19:27:06.216Z,40.61
2019-02-26T19:29:36.843Z,40.23
2019-02-26T19:32:07.189Z,40.99
2019-02-26T19:34:38.275Z,41.34
2019-02-26T19:37:08.954Z,41.68
2019-02-26T19:39:39.934Z,41.93
2019-02-26T19:42:10.436Z,42.44
2019-02-26T19:44:41.116Z,42.85
2019-02-26T19:47:14.364Z,43.14
2019-02-26T19:49:45.541Z,43.06
2019-02-26T19:52:16.173Z,43.42
2019-02-26T19:54:47.331Z,43.58
2019-02-26T19:57:17.845Z,43.38
2019-02-26T19:59:48.621Z,43.49
2019-02-26T20:02:19.356Z,43.51
2019-02-26T20:04:50.045Z,43.58
2019-02-26T20:07:20.564Z,43.98
2019-02-26T20:09:50.983Z,43.78
2019-02-26T20:12:28.570Z,44.07
2019-02-26T20:14:58.420Z,43.67
2019-02-26T20:17:28.575Z,43.99
2019-02-26T20:19:59.411Z,44.05
2019-02-26T20:22:31.635Z,43.75
2019-02-26T20:25:02.230Z,44.18
2019-02-26T20:27:32.802Z,44.24
2019-02-26T20:30:03.459Z,44.55
2019-02-26T20:32:35.937Z,44.68
2019-02-26T20:35:06.610Z,44.54
2019-02-26T20:37:37.211Z,44.71
2019-02-26T20:40:08.677Z,45.21
2019-02-26T20:42:39.129Z,44.88
2019-02-26T20:45:10.876Z,45.19
2019-02-26T20:47:41.359Z,45.11
2019-02-26T20:50:11.685Z,45.09
2019-02-26T20:52:42.168Z,45.20
2019-02-26T20:55:14.054Z,45.26
2019-02-26T20:57:44.746Z,45.52
2019-02-26T21:00:17.062Z,45.12
2019-02-26T21:02:47.596Z,45.46
2019-02-26T21:05:18.514Z,45.67
2019-02-26T21:07:49.609Z,45.87
2019-02-26T21:10:20.689Z,45.57
2019-02-26T21:12:53.545Z,45.67
2019-02-26T21:15:24.161Z,45.43
2019-02-26T21:17:57.755Z,45.52
2019-02-26T21:20:27.098Z,45.55
2019-02-26T21:22:59.300Z,45.29
2019-02-26T21:25:29.655Z,45.43
2019-02-26T21:28:01.454Z,45.14
2019-02-26T21:30:32.331Z,44.93
2019-02-26T21:33:03.075Z,45.24
2019-02-26T21:35:33.685Z,45.29
2019-02-26T21:38:05.944Z,45.10
2019-02-26T21:40:37.353Z,45.56
2019-02-26T21:43:08.217Z,45.88
2019-02-26T21:45:38.518Z,46.09
2019-02-26T21:48:08.992Z,46.24
2019-02-26T21:50:39.509Z,46.01
2019-02-26T21:53:10.062Z,46.05
2019-02-26T21:55:44.335Z,45.76
2019-02-26T21:58:15.036Z,45.74
2019-02-26T22:00:45.481Z,46.07
2019-02-26T22:03:16.043Z,46.78
2019-02-26T22:05:46.624Z,46.15
2019-02-26T22:08:17.296Z,45.54
2019-02-26T22:10:47.868Z,45.96
2019-02-26T22:13:18.143Z,45.72
2019-02-26T22:15:48.695Z,45.85
2019-02-26T22:18:19.256Z,46.05
2019-02-26T22:20:49.765Z,46.33
2019-02-26T22:23:20.050Z,46.62
2019-02-26T22:25:52.539Z,46.67
2019-02-26T22:28:23.151Z,46.78
2019-02-26T22:30:55.955Z,46.59
2019-02-26T22:33:26.055Z,46.36
2019-02-26T22:35:56.954Z,45.95
2019-02-26T22:38:28.587Z,46.48
2019-02-26T22:40:59.878Z,46.47
2019-02-26T22:43:31.233Z,46.24
2019-02-26T22:46:01.821Z,46.36
2019-02-26T22:48:32.366Z,46.08
2019-02-26T22:51:02.974Z,46.25
2019-02-26T22:53:36.376Z,46.76
2019-02-26T22:56:05.633Z,46.27
2019-02-26T22:58:36.321Z,46.31
2019-02-26T23:01:30.362Z,46.28
2019-02-26T23:03:56.243Z,46.42
2019-02-26T23:06:26.873Z,46.54
2019-02-26T23:08:57.468Z,46.61
2019-02-26T23:11:31.562Z,46.59
2019-02-26T23:14:02.684Z,46.36
2019-02-26T23:16:33.614Z,46.26
2019-02-26T23:19:05.038Z,46.13
2019-02-26T23:21:35.771Z,46.38
2019-02-26T23:24:07.125Z,46.39
2019-02-26T23:26:41.746Z,46.33
2019-02-26T23:29:10.827Z,46.11
2019-02-26T23:31:41.506Z,46.32
2019-02-26T23:34:12.286Z,46.60
2019-02-26T23:36:42.795Z,46.34
2019-02-26T23:39:15.988Z,46.39
2019-02-26T23:41:46.627Z,46.39
2019-02-26T23:44:18.554Z,46.44
2019-02-26T23:46:49.378Z,46.44
2019-02-26T23:49:19.933Z,46.94
2019-02-26T23:51:50.946Z,46.74
2019-02-26T23:54:22.722Z,46.81
2019-02-26T23:56:53.150Z,46.78
2019-02-26T23:59:23.744Z,46.44
